createdAt,value
2022-08-03T00:02:27.198Z,5.10
2022-08-03T00:07:30.086Z,5.10
2022-08-03T00:12:33.030Z,5.00
2022-08-03T00:17:53.051Z,4.80
2022-08-03T00:22:57.353Z,4.90
2022-08-03T00:28:01.451Z,5.20
2022-08-03T00:33:04.409Z,4.70
2022-08-03T00:38:07.445Z,4.70
2022-08-03T00:43:10.932Z,4.80
2022-08-03T00:48:29.757Z,4.60
2022-08-03T00:53:36.463Z,5.30
2022-08-03T00:58:39.327Z,4.70
2022-08-03T01:03:42.312Z,4.60
2022-08-03T01:09:17.317Z,4.20
2022-08-03T01:14:27.665Z,4.90
2022-08-03T01:20:10.802Z,5.00
2022-08-03T01:25:59.420Z,4.70
2022-08-03T01:31:06.985Z,4.70
2022-08-03T01:36:26.985Z,5.20
2022-08-03T01:41:33.841Z,4.80
2022-08-03T01:46:38.354Z,4.40
2022-08-03T01:52:02.698Z,4.50
2022-08-03T01:57:05.858Z,4.90
2022-08-03T02:02:15.664Z,5.00
2022-08-03T02:07:32.229Z,4.40
2022-08-03T02:12:35.126Z,4.50
2022-08-03T02:17:39.501Z,4.70
2022-08-03T02:22:43.924Z,4.90
2022-08-03T02:27:52.937Z,4.60
2022-08-03T02:32:56.459Z,4.90
2022-08-03T02:38:04.344Z,5.20
2022-08-03T02:43:10.715Z,5.50
2022-08-03T02:48:18.339Z,5.10
2022-08-03T02:53:22.255Z,4.70
2022-08-03T02:58:25.084Z,5.20
2022-08-03T03:03:27.840Z,5.60
2022-08-03T03:08:33.503Z,5.60
2022-08-03T03:13:38.027Z,5.50
2022-08-03T03:18:40.837Z,5.40
2022-08-03T03:23:43.707Z,5.40
2022-08-03T03:28:46.616Z,7.20
2022-08-03T03:33:49.477Z,8.40
2022-08-03T03:38:53.770Z,8.80
2022-08-03T03:43:56.956Z,9.10
2022-08-03T03:48:59.879Z,8.70
2022-08-03T03:54:04.690Z,8.50
2022-08-03T03:59:07.544Z,9.30
2022-08-03T04:16:41.873Z,10.40
2022-08-03T04:21:48.714Z,11.30
2022-08-03T04:26:52.870Z,11.70
2022-08-03T04:31:56.198Z,12.20
2022-08-03T04:37:00.876Z,12.80
2022-08-03T04:42:09.052Z,14.20
2022-08-03T04:47:12.438Z,14.60
2022-08-03T04:52:15.507Z,15.40
2022-08-03T04:57:22.473Z,16.20
2022-08-03T05:02:26.302Z,15.80
2022-08-03T05:07:35.621Z,15.10
2022-08-03T05:12:42.024Z,14.90
2022-08-03T05:17:44.956Z,15.70
2022-08-03T05:22:47.815Z,14.90
2022-08-03T05:27:50.544Z,16.80
2022-08-03T05:32:53.647Z,16.10
2022-08-03T05:37:56.450Z,15.50
2022-08-03T05:42:59.215Z,13.80
2022-08-03T05:48:02.064Z,13.50
2022-08-03T05:53:04.877Z,13.20
2022-08-03T05:58:07.663Z,12.10
2022-08-03T06:03:10.411Z,11.80
2022-08-03T06:08:15.454Z,11.80
2022-08-03T06:13:18.551Z,12.30
2022-08-03T06:18:21.489Z,12.30
2022-08-03T06:23:53.116Z,13.20
2022-08-03T06:28:52.157Z,13.00
2022-08-03T06:34:32.194Z,14.20
2022-08-03T06:39:19.219Z,13.90
2022-08-03T06:44:22.050Z,13.10
2022-08-03T06:49:24.997Z,12.80
2022-08-03T06:54:28.001Z,14.10
2022-08-03T07:00:09.848Z,14.30
2022-08-03T07:04:53.832Z,14.00
2022-08-03T07:09:58.201Z,13.90
2022-08-03T07:15:03.131Z,14.00
2022-08-03T07:20:08.219Z,14.20
2022-08-03T07:25:11.037Z,15.90
2022-08-03T07:30:14.721Z,15.20
2022-08-03T07:35:24.903Z,15.20
2022-08-03T07:40:31.635Z,15.00
2022-08-03T07:45:34.937Z,14.70
2022-08-03T07:50:37.698Z,14.10
2022-08-03T07:55:40.545Z,14.00
2022-08-03T08:00:44.796Z,13.30
2022-08-03T08:05:48.599Z,12.20
2022-08-03T08:10:58.215Z,12.20
2022-08-03T08:16:01.441Z,12.80
2022-08-03T08:21:04.308Z,11.80
2022-08-03T08:26:09.295Z,10.60
2022-08-03T08:31:12.059Z,10.60
2022-08-03T08:36:15.873Z,10.10
2022-08-03T08:41:19.454Z,10.10
2022-08-03T08:46:23.259Z,9.70
2022-08-03T08:51:50.981Z,9.70
2022-08-03T08:57:06.655Z,7.70
2022-08-03T09:02:20.104Z,6.70
2022-08-03T09:07:23.115Z,7.30
2022-08-03T09:12:42.625Z,5.50
2022-08-03T09:17:50.654Z,6.60
2022-08-03T09:22:57.602Z,4.80
2022-08-03T09:28:13.204Z,4.30
2022-08-03T09:33:47.593Z,5.10
2022-08-03T09:39:14.684Z,5.50
2022-08-03T09:44:25.670Z,4.60
2022-08-03T09:49:29.070Z,4.90
2022-08-03T09:54:32.592Z,5.40
2022-08-03T09:59:35.431Z,4.30
2022-08-03T10:04:51.077Z,4.20
2022-08-03T10:10:29.059Z,3.90
2022-08-03T10:16:22.022Z,3.80
2022-08-03T10:20:59.091Z,3.40
2022-08-03T10:26:05.568Z,3.40
2022-08-03T10:31:08.500Z,3.70
2022-08-03T10:36:13.668Z,4.80
2022-08-03T10:41:16.666Z,4.50
2022-08-03T10:46:20.681Z,4.30
2022-08-03T10:51:24.055Z,4.10
2022-08-03T10:56:50.975Z,4.00
2022-08-03T11:01:59.225Z,3.60
2022-08-03T11:07:25.420Z,3.60
2022-08-03T11:12:32.240Z,4.00
2022-08-03T11:17:46.162Z,3.40
2022-08-03T11:23:01.321Z,3.30
2022-08-03T11:28:29.257Z,2.80
2022-08-03T11:33:33.508Z,2.60
2022-08-03T11:38:36.219Z,2.50
2022-08-03T11:43:44.114Z,2.80
2022-08-03T11:48:49.350Z,2.70
2022-08-03T11:54:00.856Z,2.20
2022-08-03T11:59:20.768Z,2.30
2022-08-03T12:04:24.420Z,2.40
2022-08-03T12:09:27.199Z,2.30
2022-08-03T12:14:49.684Z,2.50
2022-08-03T12:19:53.387Z,2.40
2022-08-03T12:24:56.140Z,2.10
2022-08-03T12:30:00.175Z,2.30
2022-08-03T12:35:04.682Z,2.20
2022-08-03T12:40:13.270Z,2.00
2022-08-03T12:45:20.434Z,1.90
2022-08-03T12:50:31.575Z,2.20
2022-08-03T12:55:56.423Z,2.00
2022-08-03T13:00:57.733Z,2.20
2022-08-03T13:06:00.495Z,2.40
2022-08-03T13:11:55.418Z,2.20
2022-08-03T13:16:49.756Z,2.90
2022-08-03T13:28:01.270Z,2.40
2022-08-03T13:32:30.471Z,2.40
2022-08-03T13:37:34.134Z,2.30
2022-08-03T13:42:37.150Z,2.40
2022-08-03T13:47:41.544Z,2.20
2022-08-03T13:52:46.373Z,2.70
2022-08-03T13:58:03.731Z,2.80
2022-08-03T14:03:14.242Z,4.40
2022-08-03T14:08:18.323Z,4.40
2022-08-03T14:13:21.203Z,7.00
2022-08-03T14:18:28.805Z,2.80
2022-08-03T14:23:37.853Z,2.80
2022-08-03T14:33:43.791Z,3.20
2022-08-03T14:38:46.533Z,3.20
2022-08-03T14:44:01.658Z,2.70
2022-08-03T14:50:34.541Z,7.00
2022-08-03T14:54:31.125Z,3.10
2022-08-03T14:59:56.793Z,3.10
2022-08-03T15:04:56.885Z,3.00
2022-08-03T15:09:59.705Z,2.90
2022-08-03T15:15:06.048Z,2.90
2022-08-03T15:20:28.885Z,3.30
2022-08-03T15:26:27.884Z,3.00
2022-08-03T15:30:57.073Z,3.10
2022-08-03T15:36:00.334Z,3.30
2022-08-03T15:41:03.270Z,3.20
2022-08-03T15:46:28.822Z,3.60
2022-08-03T15:51:29.012Z,3.10
2022-08-03T15:56:31.910Z,3.00
2022-08-03T16:01:34.898Z,3.10
2022-08-03T16:06:37.840Z,3.20
2022-08-03T16:11:40.680Z,3.30
2022-08-03T16:16:44.038Z,3.20
2022-08-03T16:21:48.727Z,3.50
2022-08-03T16:26:51.918Z,3.20
2022-08-03T16:31:54.699Z,3.00
2022-08-03T16:36:57.611Z,3.50
2022-08-03T16:42:01.731Z,3.50
2022-08-03T16:47:04.913Z,3.60
2022-08-03T16:52:07.806Z,3.90
2022-08-03T16:57:10.517Z,3.90
2022-08-03T17:02:28.340Z,3.90
2022-08-03T17:07:31.683Z,4.10
2022-08-03T17:12:34.484Z,4.40
2022-08-03T17:17:56.263Z,5.20
2022-08-03T17:23:34.855Z,7.40
2022-08-03T17:28:51.975Z,8.10
2022-08-03T17:34:01.443Z,13.10
2022-08-03T17:39:06.505Z,7.30
2022-08-03T17:44:15.423Z,5.60
2022-08-03T17:49:32.369Z,5.40
2022-08-03T17:55:54.915Z,4.70
2022-08-03T18:00:55.885Z,7.30
2022-08-03T18:06:11.106Z,5.90
2022-08-03T18:11:21.792Z,5.70
2022-08-03T18:17:01.249Z,6.10
2022-08-03T18:22:04.578Z,6.30
2022-08-03T18:27:08.042Z,6.30
2022-08-03T18:32:16.746Z,7.50
2022-08-03T18:37:25.739Z,10.80
2022-08-03T18:42:28.889Z,10.20
2022-08-03T18:47:58.087Z,8.40
2022-08-03T18:53:22.897Z,6.50
2022-08-03T18:59:02.517Z,8.40
2022-08-03T19:04:35.114Z,6.60
2022-08-03T19:09:52.630Z,6.60
2022-08-03T19:15:12.959Z,6.20
2022-08-03T19:20:22.783Z,7.20
2022-08-03T19:25:34.676Z,8.20
2022-08-03T19:30:46.433Z,7.60
2022-08-03T19:35:57.128Z,7.20
2022-08-03T19:41:03.792Z,7.10
2022-08-03T19:46:14.136Z,6.30
2022-08-03T19:51:17.078Z,6.00
2022-08-03T19:56:24.712Z,6.10
2022-08-03T20:01:28.254Z,7.10
2022-08-03T20:06:31.181Z,6.30
2022-08-03T20:11:45.228Z,7.20
2022-08-03T20:16:48.749Z,8.50
2022-08-03T20:21:53.486Z,8.00
2022-08-03T20:26:58.344Z,7.60
2022-08-03T20:32:01.437Z,7.40
2022-08-03T20:37:05.283Z,7.60
2022-08-03T20:42:12.536Z,7.50
2022-08-03T20:47:23.645Z,9.10
2022-08-03T20:52:28.136Z,9.30
2022-08-03T20:57:33.174Z,9.10
2022-08-03T21:02:38.186Z,8.90
2022-08-03T21:08:05.078Z,8.80
2022-08-03T21:13:28.599Z,9.50
2022-08-03T21:18:31.469Z,10.30
2022-08-03T21:23:41.541Z,9.30
2022-08-03T21:28:52.664Z,9.50
2022-08-03T21:34:01.705Z,8.80
2022-08-03T21:39:07.098Z,8.70
2022-08-03T21:44:10.081Z,9.80
2022-08-03T21:49:51.915Z,10.50
2022-08-03T21:54:42.595Z,10.20
2022-08-03T21:59:55.765Z,10.30
2022-08-03T22:04:58.566Z,9.90
2022-08-03T22:10:02.451Z,9.70
2022-08-03T22:15:09.021Z,9.50
2022-08-03T22:20:14.741Z,9.40
2022-08-03T22:25:17.509Z,8.80
2022-08-03T22:30:20.281Z,8.10
2022-08-03T22:35:24.829Z,8.30
2022-08-03T22:40:28.153Z,8.60
2022-08-03T22:46:07.817Z,8.00
2022-08-03T22:50:53.925Z,8.10
2022-08-03T22:55:56.862Z,8.20
2022-08-03T23:01:09.035Z,8.30
2022-08-03T23:06:11.802Z,7.60
2022-08-03T23:11:14.558Z,7.90
2022-08-03T23:16:28.924Z,8.20
2022-08-03T23:22:00.154Z,8.30
2022-08-03T23:26:55.519Z,7.10
2022-08-03T23:31:59.588Z,8.00
2022-08-03T23:37:02.454Z,7.40
2022-08-03T23:42:05.308Z,7.20
2022-08-03T23:47:09.147Z,7.20
2022-08-03T23:52:29.981Z,7.60
2022-08-03T23:57:46.820Z,7.20
